Flight Track Log - Related Links

Times and Time Zones

All times are in EDT time to prevent confusion due to time zone crossing. See the SKW5516 flight status page for this flight to view local times or setup timezone preferences in your user account.

Time Position Orientation Groundspeed Altitude Reporting Facility
EDT Latitude Longitude Course Direction KTS MPH feet Rate Location/Type
Tue 05:43:00 PM 36.6037 -119.6359 159° South  Level Estimated
Tue 05:44:00 PM 36.5462 -119.6084 159° South  Level Estimated
Tue 05:45:00 PM 36.4886 -119.5809 159° South  Level Estimated
Tue 05:46:00 PM 36.4310 -119.5535 159° South  Level Estimated
Tue 05:47:00 PM 36.3734 -119.5261 159° South  Level Estimated
Tue 05:48:00 PM 36.3158 -119.4988 159° South  Level Estimated
Tue 05:49:00 PM 36.2582 -119.4715 159° South  Level Estimated
Tue 05:50:00 PM 36.2006 -119.4442 159° South  Level Estimated
Tue 05:51:00 PM 36.1430 -119.4170 159° South  Level Estimated
Tue 05:52:00 PM 36.0853 -119.3898 159° South  Level Estimated
Tue 05:53:00 PM 36.0277 -119.3627 159° South  Level Estimated
Tue 05:54:00 PM 35.9701 -119.3356 159° South  Level Estimated
Tue 05:55:00 PM 35.9124 -119.3085 159° South  Level Estimated
Tue 05:56:00 PM 35.8548 -119.2815 159° South  Level Estimated
Tue 05:57:00 PM 35.7971 -119.2545 159° South  Level Estimated
Tue 05:58:00 PM 35.7395 -119.2276 159° South  Level Estimated
Tue 05:59:00 PM 35.6818 -119.2007 159° South  Level Estimated
Tue 06:00:00 PM 35.6241 -119.1738 159° South  Level Estimated
Tue 06:01:00 PM 35.5664 -119.1470 159° South  Level Estimated
Tue 06:02:00 PM 35.5088 -119.1202 159° South  Level Estimated
Tue 06:03:00 PM 35.4511 -119.0934 159° South  Level Estimated
Tue 06:04:00 PM 35.3934 -119.0667 159° South  Level Estimated
Tue 06:05:00 PM 35.3357 -119.0401 159° South  Level Estimated
Tue 06:06:00 PM 35.2780 -119.0134 159° South  Level Estimated
Tue 06:07:00 PM 35.2202 -118.9868 159° South  Level Estimated
Tue 06:08:00 PM 35.1625 -118.9603 159° South  Level Estimated
Tue 06:09:00 PM 35.1048 -118.9337 159° South  Level Estimated
Tue 06:10:00 PM 35.0471 -118.9073 159° South  Level Estimated
Tue 06:11:00 PM 34.9893 -118.8808 159° South  Level Estimated
Tue 06:12:00 PM 34.9316 -118.8544 159° South  Level Estimated
Tue 06:13:00 PM 34.8738 -118.8280 159° South  Level Estimated
Tue 06:14:00 PM 34.8161 -118.8017 159° South  Level Estimated
Tue 06:15:00 PM 34.7583 -118.7754 159° South  Level Estimated
Tue 06:16:00 PM 34.7006 -118.7491 160° South  Level Estimated
Tue 06:17:00 PM 34.6428 -118.7229 160° South  Level Estimated
Tue 06:18:00 PM 34.5850 -118.6967 160° South  Level Estimated
Tue 06:19:00 PM 34.5272 -118.6706 160° South  Level Estimated
Tue 06:20:00 PM 34.4694 -118.6444 160° South  Level Estimated
Tue 06:21:00 PM 34.4117 -118.6184 160° South  Level Estimated
Tue 06:22:00 PM 34.3539 -118.5923 160° South  Level Estimated
Tue 06:23:00 PM 34.2961 -118.5663 160° South  Level Estimated
Tue 06:24:00 PM 34.2382 -118.5403 160° South  Level Estimated
Tue 06:25:00 PM 34.1804 -118.5144 160° South  Level Estimated
Tue 06:26:00 PM 34.1226 -118.4885 160° South  Level Estimated
Tue 06:27:00 PM 34.0648 -118.4626 160° South  Level Estimated
Tue 06:28:00 PM 34.0069 -118.4368 160° South  Level Estimated
Tue 06:29:00 PM 33.9491 -118.4110 160° South  Level Estimated
Tue 06:30:00 PM 33.9425 -118.4081 160° South  Level Estimated
Tue 06:31:00 PM 33.9425 -118.4081 164° South  Level Estimated

Login

Don't have an account? Register now (free) for customized features, flight alerts, and more!